createdAt,value
2022-08-04T00:00:56.285Z,98295.03
2022-08-04T00:03:28.047Z,98291.31
2022-08-04T00:06:07.139Z,98292.31
2022-08-04T00:08:53.111Z,98295.31
2022-08-04T00:11:30.600Z,98294.84
2022-08-04T00:14:14.674Z,98290.66
2022-08-04T00:16:43.850Z,98287.53
2022-08-04T00:19:17.385Z,98291.34
2022-08-04T00:22:00.223Z,98287.34
2022-08-04T00:24:31.303Z,98291.16
2022-08-04T00:26:58.516Z,98293.00
2022-08-04T00:29:25.376Z,98290.34
2022-08-04T00:31:57.503Z,98298.34
2022-08-04T00:34:29.476Z,98292.84
2022-08-04T00:36:59.047Z,98290.28
2022-08-04T00:39:27.141Z,98284.63
2022-08-04T00:42:34.376Z,98282.59
2022-08-04T00:45:22.066Z,98284.63
2022-08-04T00:48:04.354Z,98286.28
2022-08-04T00:50:59.432Z,98284.75
2022-08-04T00:53:38.441Z,98278.91
2022-08-04T00:56:58.482Z,98276.44
2022-08-04T00:59:52.556Z,98280.22
2022-08-04T01:02:38.642Z,98275.91
2022-08-04T01:05:28.050Z,98276.59
2022-08-04T01:08:19.109Z,98274.56
2022-08-04T01:11:31.314Z,98279.91
2022-08-04T01:14:29.829Z,98277.22
2022-08-04T01:17:24.428Z,98279.56
2022-08-04T01:20:04.105Z,98274.53
2022-08-04T01:22:33.577Z,98275.84
2022-08-04T01:25:42.181Z,98269.69
2022-08-04T01:28:54.752Z,98281.53
2022-08-04T01:31:41.028Z,98275.53
2022-08-04T01:34:13.541Z,98277.50
2022-08-04T01:36:59.559Z,98273.97
2022-08-04T01:39:41.372Z,98275.59
2022-08-04T01:42:11.335Z,98269.44
2022-08-04T01:44:41.768Z,98262.06
2022-08-04T01:47:09.801Z,98266.38
2022-08-04T01:49:40.162Z,98263.06
2022-08-04T01:52:10.385Z,98264.66
2022-08-04T01:54:42.587Z,98264.00
2022-08-04T01:57:37.674Z,98262.31
2022-08-04T02:00:00.530Z,98258.16
2022-08-04T02:02:27.717Z,98258.69
2022-08-04T02:04:54.303Z,98256.34
2022-08-04T02:07:54.878Z,98255.53
2022-08-04T02:10:45.668Z,98253.66
2022-08-04T02:13:44.228Z,98241.28
2022-08-04T02:16:52.791Z,98247.81
2022-08-04T02:19:32.238Z,98247.66
2022-08-04T02:22:18.511Z,98247.22
2022-08-04T02:24:57.475Z,98244.41
2022-08-04T02:27:59.729Z,98242.09
2022-08-04T02:30:40.288Z,98238.06
2022-08-04T02:33:09.418Z,98235.75
2022-08-04T02:35:41.043Z,98235.69
2022-08-04T02:38:40.387Z,98232.66
2022-08-04T02:41:10.990Z,98229.13
2022-08-04T02:43:51.569Z,98231.09
2022-08-04T02:46:22.094Z,98223.75
2022-08-04T02:48:51.454Z,98226.53
2022-08-04T02:51:24.522Z,98222.84
2022-08-04T02:53:56.375Z,98222.84
2022-08-04T02:56:27.582Z,98219.22
2022-08-04T02:59:04.259Z,98216.19
2022-08-04T03:01:32.039Z,98219.69
2022-08-04T03:04:47.772Z,98219.50
2022-08-04T03:07:59.814Z,98220.41
2022-08-04T03:11:14.179Z,98220.06
2022-08-04T03:14:18.297Z,98214.44
2022-08-04T03:17:29.967Z,98211.97
2022-08-04T03:20:32.870Z,98206.47
2022-08-04T03:23:36.902Z,98215.50
2022-08-04T03:26:28.738Z,98219.84
2022-08-04T03:29:33.155Z,98205.53
2022-08-04T03:32:49.732Z,98208.03
2022-08-04T03:35:33.859Z,98217.34
2022-08-04T03:38:17.586Z,98219.31
2022-08-04T03:41:05.345Z,98214.47
2022-08-04T03:43:57.447Z,98214.00
2022-08-04T03:47:25.907Z,98205.31
2022-08-04T03:50:10.399Z,98205.81
2022-08-04T03:53:14.000Z,98210.81
2022-08-04T03:56:36.020Z,98206.19
2022-08-04T04:00:23.010Z,98205.47
2022-08-04T04:03:28.606Z,98210.25
2022-08-04T04:06:44.852Z,98210.09
2022-08-04T04:09:52.942Z,98216.13
2022-08-04T04:12:51.292Z,98205.38
2022-08-04T04:15:56.350Z,98202.06
2022-08-04T04:18:59.834Z,98206.91
2022-08-04T04:21:48.379Z,98205.34
2022-08-04T04:24:44.187Z,98205.16
2022-08-04T04:27:37.712Z,98205.44
2022-08-04T04:30:07.891Z,98209.63
2022-08-04T04:33:26.819Z,98197.19
2022-08-04T04:36:12.065Z,98209.34
2022-08-04T04:39:21.582Z,98207.53
2022-08-04T04:42:44.412Z,98207.34
2022-08-04T04:45:34.416Z,98206.22
2022-08-04T04:48:42.928Z,98206.56
2022-08-04T04:52:00.194Z,98211.56
2022-08-04T04:54:38.619Z,98207.59
2022-08-04T04:57:13.549Z,98209.28
2022-08-04T05:00:02.198Z,98209.31
2022-08-04T05:03:16.881Z,98208.69
2022-08-04T05:06:15.127Z,98210.00
2022-08-04T05:09:26.150Z,98212.38
2022-08-04T05:14:31.418Z,98205.69
2022-08-04T05:15:28.846Z,98212.38
2022-08-04T05:18:00.588Z,98214.25
2022-08-04T05:20:34.259Z,98213.13
2022-08-04T05:23:17.066Z,98211.97
2022-08-04T05:25:59.464Z,98209.63
2022-08-04T05:28:39.505Z,98210.16
2022-08-04T05:31:25.970Z,98209.19
2022-08-04T05:33:58.393Z,98212.19
2022-08-04T05:36:41.215Z,98216.19
2022-08-04T05:39:17.375Z,98212.06
2022-08-04T05:41:48.177Z,98210.53
2022-08-04T05:44:24.721Z,98212.22
2022-08-04T05:46:56.417Z,98208.56
2022-08-04T05:49:26.816Z,98208.38
2022-08-04T05:52:00.181Z,98211.91
2022-08-04T05:54:31.970Z,98204.75
2022-08-04T05:56:59.865Z,98198.91
2022-08-04T05:59:29.809Z,98199.06
2022-08-04T06:02:00.044Z,98203.56
2022-08-04T06:04:38.922Z,98204.88
2022-08-04T06:07:07.822Z,98208.88
2022-08-04T06:09:34.940Z,98202.19
2022-08-04T06:12:14.327Z,98206.81
2022-08-04T06:14:44.647Z,98204.31
2022-08-04T06:19:58.941Z,98192.13
2022-08-04T06:20:19.630Z,98205.47
2022-08-04T06:22:56.111Z,98211.78
2022-08-04T06:25:29.619Z,98207.91
2022-08-04T06:27:57.859Z,98212.69
2022-08-04T06:30:28.419Z,98210.44
2022-08-04T06:33:03.622Z,98208.22
2022-08-04T06:35:32.395Z,98205.50
2022-08-04T06:38:01.527Z,98211.78
2022-08-04T06:40:33.488Z,98204.00
2022-08-04T06:43:07.445Z,98202.38
2022-08-04T06:45:39.859Z,98211.28
2022-08-04T06:48:08.738Z,98204.31
2022-08-04T06:51:26.531Z,98211.94
2022-08-04T06:53:25.901Z,98205.41
2022-08-04T06:55:54.705Z,98207.91
2022-08-04T06:58:24.027Z,98207.09
2022-08-04T07:00:51.942Z,98202.94
2022-08-04T07:03:19.922Z,98204.94
2022-08-04T07:05:49.028Z,98208.31
2022-08-04T07:08:16.764Z,98208.28
2022-08-04T07:10:45.149Z,98204.78
2022-08-04T07:13:12.880Z,98204.53
2022-08-04T07:15:45.167Z,98206.38
2022-08-04T07:18:12.143Z,98198.88
2022-08-04T07:20:43.918Z,98205.81
2022-08-04T07:23:13.625Z,98192.50
2022-08-04T07:26:00.387Z,98196.34
2022-08-04T07:28:30.355Z,98191.69
2022-08-04T07:30:58.205Z,98194.06
2022-08-04T07:33:26.299Z,98202.59
2022-08-04T07:36:05.728Z,98199.75
2022-08-04T07:38:51.088Z,98197.94
2022-08-04T07:41:42.544Z,98194.72
2022-08-04T07:44:14.382Z,98198.91
2022-08-04T07:46:42.343Z,98196.47
2022-08-04T07:49:10.079Z,98197.53
2022-08-04T07:51:37.775Z,98200.66
2022-08-04T07:54:07.627Z,98195.53
2022-08-04T07:56:37.294Z,98200.09
2022-08-04T07:59:05.075Z,98189.75
2022-08-04T08:01:34.300Z,98196.59
2022-08-04T08:04:02.146Z,98199.91
2022-08-04T08:06:32.972Z,98191.41
2022-08-04T08:09:14.693Z,98193.69
2022-08-04T08:12:35.880Z,98194.53
2022-08-04T08:14:31.559Z,98193.69
2022-08-04T08:17:02.224Z,98187.91
2022-08-04T08:19:33.055Z,98191.19
2022-08-04T08:22:01.764Z,98192.44
2022-08-04T08:24:31.687Z,98192.41
2022-08-04T08:27:06.716Z,98199.47
2022-08-04T08:29:35.605Z,98195.66
2022-08-04T08:32:14.641Z,98194.00
2022-08-04T08:34:45.018Z,98186.91
2022-08-04T08:37:56.281Z,98195.16
2022-08-04T08:40:49.023Z,98187.81
2022-08-04T08:44:07.121Z,98190.06
2022-08-04T08:47:06.899Z,98192.09
2022-08-04T08:50:07.377Z,98196.03
2022-08-04T08:53:05.891Z,98190.38
2022-08-04T08:56:14.934Z,98192.16
2022-08-04T08:59:26.299Z,98193.97
2022-08-04T09:02:21.798Z,98195.50
2022-08-04T09:05:19.154Z,98194.56
2022-08-04T09:08:15.360Z,98182.03
2022-08-04T09:11:08.896Z,98185.38
2022-08-04T09:13:46.129Z,98181.84
2022-08-04T09:16:24.476Z,98174.47
2022-08-04T09:19:38.051Z,98174.69
2022-08-04T09:22:22.335Z,98186.16
2022-08-04T09:25:08.676Z,98176.69
2022-08-04T09:27:56.834Z,98180.38
2022-08-04T09:30:43.528Z,98174.72
2022-08-04T09:33:46.067Z,98180.56
2022-08-04T09:36:25.743Z,98180.19
2022-08-04T09:39:20.255Z,98174.44
2022-08-04T09:42:25.678Z,98176.97
2022-08-04T09:45:12.481Z,98179.38
2022-08-04T09:48:34.168Z,98171.94
2022-08-04T09:51:17.112Z,98168.06
2022-08-04T09:54:02.722Z,98169.19
2022-08-04T09:56:48.882Z,98165.66
2022-08-04T09:59:28.016Z,98169.81
2022-08-04T10:02:07.403Z,98167.94
2022-08-04T10:04:39.406Z,98165.31
2022-08-04T10:07:41.205Z,98161.53
2022-08-04T10:10:19.048Z,98151.06
2022-08-04T10:13:25.703Z,98163.44
2022-08-04T10:16:14.416Z,98153.41
2022-08-04T10:19:38.895Z,98151.72
2022-08-04T10:22:28.664Z,98147.81
2022-08-04T10:26:03.101Z,98152.63
2022-08-04T10:28:21.210Z,98149.88
2022-08-04T10:30:57.770Z,98155.09
2022-08-04T10:33:45.124Z,98146.09
2022-08-04T10:36:19.576Z,98141.81
2022-08-04T10:39:42.759Z,98140.91
2022-08-04T10:42:27.325Z,98142.47
2022-08-04T10:45:19.310Z,98143.16
2022-08-04T10:48:10.735Z,98141.88
2022-08-04T10:50:49.023Z,98139.25
2022-08-04T10:53:22.694Z,98150.41
2022-08-04T10:56:06.323Z,98149.69
2022-08-04T10:58:47.587Z,98139.13
2022-08-04T11:02:00.758Z,98132.31
2022-08-04T11:04:51.991Z,98129.81
2022-08-04T11:07:19.982Z,98121.31
2022-08-04T11:09:47.397Z,98134.22
2022-08-04T11:12:24.037Z,98130.44
2022-08-04T11:15:01.459Z,98130.78
2022-08-04T11:17:43.606Z,98130.09
2022-08-04T11:20:38.556Z,98134.22
2022-08-04T11:23:17.439Z,98134.66
2022-08-04T11:26:18.491Z,98142.03
2022-08-04T11:29:30.058Z,98134.38
2022-08-04T11:32:02.665Z,98131.78
2022-08-04T11:34:30.751Z,98125.31
2022-08-04T11:37:14.234Z,98128.09
2022-08-04T11:40:09.552Z,98135.81
2022-08-04T11:42:52.099Z,98133.78
2022-08-04T11:45:31.223Z,98145.22
2022-08-04T11:48:04.510Z,98145.75
2022-08-04T11:50:53.076Z,98145.03
2022-08-04T11:53:34.689Z,98137.84
2022-08-04T11:56:11.161Z,98144.50
2022-08-04T11:58:38.511Z,98147.56
2022-08-04T12:01:35.646Z,98150.03
2022-08-04T12:04:23.751Z,98154.41
2022-08-04T12:07:30.704Z,98151.56
2022-08-04T12:10:41.109Z,98151.47
2022-08-04T12:14:31.799Z,98146.81
2022-08-04T12:17:05.567Z,98144.50
2022-08-04T12:20:03.200Z,98136.47
2022-08-04T12:22:41.637Z,98135.78
2022-08-04T12:25:16.067Z,98128.00
2022-08-04T12:28:03.046Z,98122.56
2022-08-04T12:30:59.071Z,98136.56
2022-08-04T12:34:04.763Z,98134.38
2022-08-04T12:36:55.661Z,98130.00
2022-08-04T12:39:25.631Z,98137.94
2022-08-04T12:42:24.078Z,98133.53
2022-08-04T12:44:55.954Z,98138.13
2022-08-04T12:47:30.169Z,98128.53
2022-08-04T12:50:03.368Z,98129.63
2022-08-04T12:53:05.175Z,98134.22
2022-08-04T12:55:35.644Z,98141.34
2022-08-04T12:58:13.394Z,98131.16
2022-08-04T13:00:47.172Z,98145.31
2022-08-04T13:03:19.599Z,98139.13
2022-08-04T13:05:48.990Z,98147.31
2022-08-04T13:08:22.007Z,98145.69
2022-08-04T13:10:53.483Z,98143.03
2022-08-04T13:13:25.551Z,98138.03
2022-08-04T13:16:08.443Z,98142.28
2022-08-04T13:18:45.801Z,98147.66
2022-08-04T13:21:23.182Z,98144.34
2022-08-04T13:24:21.233Z,98140.38
2022-08-04T13:27:03.738Z,98131.81
2022-08-04T13:29:59.973Z,98119.16
2022-08-04T13:32:29.903Z,98110.09
2022-08-04T13:35:00.584Z,98116.38
2022-08-04T13:37:37.015Z,98112.47
2022-08-04T13:40:09.177Z,98125.31
2022-08-04T13:42:38.811Z,98125.31
2022-08-04T13:45:08.888Z,98113.41
2022-08-04T13:47:40.183Z,98115.84
2022-08-04T13:50:27.117Z,98119.97
2022-08-04T13:52:58.152Z,98110.50
2022-08-04T13:55:35.223Z,98105.41
2022-08-04T13:58:21.278Z,98107.97
2022-08-04T14:01:00.955Z,98110.50
2022-08-04T14:03:54.945Z,98108.19
2022-08-04T14:06:21.444Z,98114.28
2022-08-04T14:09:12.976Z,98118.41
2022-08-04T14:12:07.145Z,98120.34
2022-08-04T14:14:37.223Z,98118.41
2022-08-04T14:17:19.831Z,98113.09
2022-08-04T14:19:50.273Z,98115.56
2022-08-04T14:22:25.738Z,98114.78
2022-08-04T14:25:16.061Z,98110.19
2022-08-04T14:28:03.288Z,98112.13
2022-08-04T14:30:36.830Z,98105.63
2022-08-04T14:34:01.550Z,98101.03
2022-08-04T14:36:03.860Z,98102.16
2022-08-04T14:38:49.168Z,98101.06
2022-08-04T14:41:20.776Z,98103.81
2022-08-04T14:43:52.891Z,98101.91
2022-08-04T14:46:21.238Z,98098.75
2022-08-04T14:49:12.740Z,98096.13
2022-08-04T14:51:51.330Z,98098.09
2022-08-04T14:54:31.445Z,98093.13
2022-08-04T14:57:06.599Z,98091.22
2022-08-04T15:00:00.657Z,98102.34
2022-08-04T15:02:30.034Z,98096.91
2022-08-04T15:04:57.538Z,98094.16
2022-08-04T15:07:24.772Z,98094.91
2022-08-04T15:09:51.626Z,98095.41
2022-08-04T15:12:18.430Z,98100.38
2022-08-04T15:14:45.322Z,98095.97
2022-08-04T15:17:29.082Z,98095.59
2022-08-04T15:19:57.679Z,98090.81
2022-08-04T15:22:24.552Z,98091.88
2022-08-04T15:24:55.230Z,98088.88
2022-08-04T15:27:28.563Z,98092.16
2022-08-04T15:30:02.291Z,98089.50
2022-08-04T15:32:44.114Z,98092.00
2022-08-04T15:35:17.161Z,98087.44
2022-08-04T15:38:05.877Z,98091.56
2022-08-04T15:41:14.219Z,98079.03
2022-08-04T15:44:05.985Z,98087.56
2022-08-04T15:46:47.497Z,98087.97
2022-08-04T15:49:25.770Z,98080.88
2022-08-04T15:52:11.821Z,98088.78
2022-08-04T15:54:39.794Z,98083.59
2022-08-04T15:57:10.378Z,98091.13
2022-08-04T15:59:57.311Z,98091.09
2022-08-04T16:02:43.019Z,98090.97
2022-08-04T16:05:18.425Z,98094.06
2022-08-04T16:08:04.500Z,98080.84
2022-08-04T16:10:30.887Z,98087.31
2022-08-04T16:13:04.326Z,98087.03
2022-08-04T16:15:41.003Z,98079.91
2022-08-04T16:18:25.554Z,98091.31
2022-08-04T16:20:59.225Z,98089.09
2022-08-04T16:23:56.986Z,98086.59
2022-08-04T16:26:42.409Z,98088.50
2022-08-04T16:29:31.878Z,98085.22
2022-08-04T16:32:04.524Z,98071.31
2022-08-04T16:34:55.289Z,98066.22
2022-08-04T16:37:32.437Z,98066.50
2022-08-04T16:40:38.468Z,98069.06
2022-08-04T16:43:11.467Z,98073.31
2022-08-04T16:45:47.533Z,98082.34
2022-08-04T16:48:17.645Z,98089.38
2022-08-04T16:50:55.431Z,98093.19
2022-08-04T16:53:52.729Z,98100.53
2022-08-04T16:56:18.875Z,98105.34
2022-08-04T16:58:53.050Z,98106.75
2022-08-04T17:01:33.723Z,98102.31
2022-08-04T17:04:06.790Z,98107.38
2022-08-04T17:06:37.677Z,98110.28
2022-08-04T17:09:09.676Z,98107.31
2022-08-04T17:11:36.290Z,98121.88
2022-08-04T17:14:05.846Z,98124.47
2022-08-04T17:16:43.425Z,98123.81
2022-08-04T17:19:25.234Z,98125.34
2022-08-04T17:22:07.248Z,98130.72
2022-08-04T17:24:40.448Z,98130.53
2022-08-04T17:28:09.085Z,98142.28
2022-08-04T17:29:54.614Z,98161.03
2022-08-04T17:32:23.300Z,98158.31
2022-08-04T17:34:54.671Z,98149.31
2022-08-04T17:37:38.870Z,98160.75
2022-08-04T17:40:12.892Z,98168.72
2022-08-04T17:42:41.728Z,98161.31
2022-08-04T17:45:50.212Z,98162.16
2022-08-04T17:47:59.337Z,98161.91
2022-08-04T17:50:34.785Z,98172.03
2022-08-04T17:53:12.074Z,98163.69
2022-08-04T17:55:47.037Z,98158.16
2022-08-04T17:58:20.914Z,98150.31
2022-08-04T18:03:51.630Z,98142.63
2022-08-04T18:06:33.019Z,98135.53
2022-08-04T18:09:22.487Z,98132.81
2022-08-04T18:11:59.160Z,98132.94
2022-08-04T18:14:29.007Z,98134.22
2022-08-04T18:16:56.047Z,98137.72
2022-08-04T18:19:22.715Z,98126.25
2022-08-04T18:21:59.720Z,98132.25
2022-08-04T18:24:34.758Z,98134.97
2022-08-04T18:27:20.237Z,98143.97
2022-08-04T18:29:56.498Z,98131.31
2022-08-04T18:32:34.239Z,98125.78
2022-08-04T18:38:11.453Z,98130.81
2022-08-04T18:40:53.111Z,98135.63
2022-08-04T18:43:28.677Z,98121.94
2022-08-04T18:45:59.448Z,98120.25
2022-08-04T18:48:36.153Z,98123.16
2022-08-04T18:51:23.275Z,98121.16
2022-08-04T18:53:58.306Z,98130.78
2022-08-04T18:59:14.548Z,98134.00
2022-08-04T19:02:13.545Z,98133.38
2022-08-04T19:04:36.757Z,98134.63
2022-08-04T19:07:24.600Z,98138.41
2022-08-04T19:09:57.252Z,98135.03
2022-08-04T19:12:26.882Z,98131.13
2022-08-04T19:14:58.806Z,98132.84
2022-08-04T19:17:52.855Z,98131.63
2022-08-04T19:20:25.143Z,98137.72
2022-08-04T19:24:11.474Z,98130.47
2022-08-04T19:25:59.413Z,98147.19
2022-08-04T19:28:28.093Z,98143.31
2022-08-04T19:30:58.792Z,98146.06
2022-08-04T19:33:25.661Z,98151.75
2022-08-04T19:36:12.176Z,98150.66
2022-08-04T19:38:38.910Z,98159.19
2022-08-04T19:41:14.352Z,98163.78
2022-08-04T19:43:43.647Z,98168.75
2022-08-04T19:46:12.328Z,98162.25
2022-08-04T19:48:40.142Z,98162.09
2022-08-04T19:51:07.745Z,98158.38
2022-08-04T19:53:37.864Z,98162.31
2022-08-04T19:56:09.796Z,98167.13
2022-08-04T19:58:38.433Z,98170.63
2022-08-04T20:01:05.020Z,98181.03
2022-08-04T20:04:09.620Z,98182.53
2022-08-04T20:06:37.808Z,98179.91
2022-08-04T20:09:04.407Z,98177.19
2022-08-04T20:11:50.928Z,98173.47
2022-08-04T20:14:17.966Z,98174.06
2022-08-04T20:16:46.471Z,98178.88
2022-08-04T20:19:14.227Z,98183.63
2022-08-04T20:21:55.275Z,98188.44
2022-08-04T20:27:15.934Z,98192.84
2022-08-04T20:29:48.694Z,98180.44
2022-08-04T20:32:23.191Z,98183.09
2022-08-04T20:34:52.183Z,98190.81
2022-08-04T20:37:24.415Z,98197.41
2022-08-04T20:40:02.162Z,98196.19
2022-08-04T20:42:33.918Z,98201.94
2022-08-04T20:45:01.889Z,98206.66
2022-08-04T20:47:35.049Z,98212.47
2022-08-04T20:50:08.714Z,98219.09
2022-08-04T20:52:37.102Z,98224.66
2022-08-04T20:55:05.937Z,98226.50
2022-08-04T20:57:48.812Z,98224.00
2022-08-04T21:00:17.632Z,98225.41
2022-08-04T21:02:53.280Z,98230.34
2022-08-04T21:05:20.436Z,98228.13
2022-08-04T21:07:48.850Z,98235.19
2022-08-04T21:10:16.963Z,98230.16
2022-08-04T21:12:43.652Z,98231.59
2022-08-04T21:15:25.147Z,98237.97
2022-08-04T21:17:59.164Z,98231.88
2022-08-04T21:20:43.137Z,98235.72
2022-08-04T21:23:10.050Z,98238.16
2022-08-04T21:25:42.964Z,98243.53
2022-08-04T21:28:10.799Z,98249.72
2022-08-04T21:30:54.078Z,98239.53
2022-08-04T21:33:28.182Z,98239.84
2022-08-04T21:36:19.469Z,98244.13
2022-08-04T21:38:51.718Z,98238.75
2022-08-04T21:41:20.346Z,98249.06
2022-08-04T21:43:51.904Z,98250.22
2022-08-04T21:46:19.849Z,98246.91
2022-08-04T21:48:49.217Z,98257.66
2022-08-04T21:51:56.790Z,98252.53
2022-08-04T21:54:07.443Z,98262.00
2022-08-04T21:56:34.756Z,98254.69
2022-08-04T21:59:05.683Z,98273.31
2022-08-04T22:01:50.613Z,98272.44
2022-08-04T22:04:19.473Z,98273.91
2022-08-04T22:06:47.689Z,98274.09
2022-08-04T22:09:18.815Z,98279.06
2022-08-04T22:11:50.802Z,98289.13
2022-08-04T22:14:29.248Z,98290.84
2022-08-04T22:17:01.153Z,98291.34
2022-08-04T22:19:40.821Z,98299.09
2022-08-04T22:22:25.397Z,98301.22
2022-08-04T22:24:53.686Z,98292.06
2022-08-04T22:27:38.650Z,98303.34
2022-08-04T22:30:13.383Z,98314.34
2022-08-04T22:32:46.468Z,98318.66
2022-08-04T22:35:35.695Z,98325.53
2022-08-04T22:38:06.864Z,98323.22
2022-08-04T22:40:47.599Z,98318.06
2022-08-04T22:43:32.857Z,98324.44
2022-08-04T22:46:07.647Z,98324.84
2022-08-04T22:48:38.719Z,98311.13
2022-08-04T22:51:07.418Z,98305.84
2022-08-04T22:53:35.575Z,98313.31
2022-08-04T22:56:10.056Z,98312.41
2022-08-04T22:58:40.305Z,98304.94
2022-08-04T23:01:08.740Z,98309.47
2022-08-04T23:03:38.653Z,98308.81
2022-08-04T23:06:11.946Z,98292.91
2022-08-04T23:08:43.295Z,98294.56
2022-08-04T23:11:15.046Z,98303.19
2022-08-04T23:13:41.836Z,98309.56
2022-08-04T23:16:09.843Z,98314.94
2022-08-04T23:18:41.752Z,98315.16
2022-08-04T23:21:10.352Z,98319.69
2022-08-04T23:23:38.298Z,98319.50
2022-08-04T23:26:27.846Z,98306.25
2022-08-04T23:28:56.379Z,98291.56
2022-08-04T23:31:24.016Z,98309.69
2022-08-04T23:33:52.418Z,98306.63
2022-08-04T23:36:30.089Z,98306.25
2022-08-04T23:39:03.966Z,98301.09
2022-08-04T23:41:53.659Z,98306.47
2022-08-04T23:44:24.454Z,98306.06
2022-08-04T23:46:58.808Z,98298.44
2022-08-04T23:49:44.121Z,98299.09
2022-08-04T23:52:27.791Z,98317.63
2022-08-04T23:55:00.954Z,98315.59
2022-08-04T23:58:05.148Z,98319.94
